createdAt,value
2023-05-17T00:01:20.929Z,101835.03
2023-05-17T00:03:49.058Z,101836.44
2023-05-17T00:06:17.100Z,101835.19
2023-05-17T00:08:45.149Z,101840.91
2023-05-17T00:11:13.223Z,101846.81
2023-05-17T00:13:42.506Z,101840.44
2023-05-17T00:16:10.784Z,101840.22
2023-05-17T00:18:42.305Z,101851.78
2023-05-17T00:21:10.744Z,101843.78
2023-05-17T00:23:39.208Z,101845.84
2023-05-17T00:26:07.263Z,101857.41
2023-05-17T00:28:35.564Z,101844.00
2023-05-17T00:31:03.582Z,101851.19
2023-05-17T00:33:31.854Z,101847.47
2023-05-17T00:36:01.390Z,101841.97
2023-05-17T00:38:29.332Z,101846.25
2023-05-17T00:40:57.979Z,101840.28
2023-05-17T00:43:26.408Z,101843.25
2023-05-17T00:45:54.726Z,101853.31
2023-05-17T00:48:25.557Z,101853.94
2023-05-17T00:50:55.206Z,101844.19
2023-05-17T00:53:25.468Z,101848.00
2023-05-17T00:55:56.051Z,101854.81
2023-05-17T00:58:26.311Z,101840.03
2023-05-17T01:00:54.653Z,101844.94
2023-05-17T01:03:23.448Z,101851.16
2023-05-17T01:05:53.605Z,101859.88
2023-05-17T01:08:22.287Z,101860.59
2023-05-17T01:10:59.465Z,101875.78
2023-05-17T01:13:36.756Z,101870.34
2023-05-17T01:16:12.956Z,101880.09
2023-05-17T01:18:46.129Z,101871.06
2023-05-17T01:21:38.547Z,101868.53
2023-05-17T01:24:26.680Z,101878.56
2023-05-17T01:26:58.041Z,101877.97
2023-05-17T01:29:29.845Z,101880.84
2023-05-17T01:31:59.607Z,101882.06
2023-05-17T01:34:30.744Z,101882.41
2023-05-17T01:37:00.101Z,101878.44
2023-05-17T01:39:28.374Z,101886.56
2023-05-17T01:42:06.743Z,101889.22
2023-05-17T01:44:42.563Z,101894.00
2023-05-17T01:47:15.781Z,101894.53
2023-05-17T01:49:49.648Z,101898.47
2023-05-17T01:52:21.610Z,101904.19
2023-05-17T01:54:57.578Z,101901.53
2023-05-17T01:57:36.556Z,101905.19
2023-05-17T02:00:08.152Z,101905.47
2023-05-17T02:02:37.275Z,101909.31
2023-05-17T02:05:05.786Z,101911.13
2023-05-17T02:07:34.890Z,101912.66
2023-05-17T02:10:03.849Z,101915.56
2023-05-17T02:12:33.311Z,101918.22
2023-05-17T02:15:01.282Z,101914.44
2023-05-17T02:17:29.505Z,101918.09
2023-05-17T02:19:57.492Z,101920.16
2023-05-17T02:22:25.822Z,101915.19
2023-05-17T02:24:53.819Z,101926.78
2023-05-17T02:27:25.335Z,101928.31
2023-05-17T02:29:54.953Z,101918.72
2023-05-17T02:32:23.096Z,101931.56
2023-05-17T02:34:51.237Z,101927.16
2023-05-17T02:37:19.258Z,101936.44
2023-05-17T02:39:47.741Z,101945.44
2023-05-17T02:42:15.757Z,101946.59
2023-05-17T02:44:43.840Z,101949.94
2023-05-17T02:47:13.319Z,101957.41
2023-05-17T02:49:43.251Z,101951.94
2023-05-17T02:52:11.348Z,101964.25
2023-05-17T02:54:39.300Z,101969.75
2023-05-17T02:57:07.569Z,101966.06
2023-05-17T02:59:35.548Z,101973.59
2023-05-17T03:02:03.621Z,101966.97
2023-05-17T03:04:33.541Z,101976.88
2023-05-17T03:07:01.673Z,101977.16
2023-05-17T03:09:30.946Z,101982.63
2023-05-17T03:11:59.214Z,101973.19
2023-05-17T03:14:28.627Z,101980.03
2023-05-17T03:16:58.429Z,101982.50
2023-05-17T03:19:26.703Z,101987.03
2023-05-17T03:21:56.481Z,101984.59
2023-05-17T03:24:24.401Z,101991.56
2023-05-17T03:26:55.398Z,101989.63
2023-05-17T03:29:23.589Z,101993.22
2023-05-17T03:31:51.939Z,101999.41
2023-05-17T03:34:20.055Z,102000.16
2023-05-17T03:36:48.009Z,102002.00
2023-05-17T03:39:17.601Z,102010.25
2023-05-17T03:41:45.668Z,102008.63
2023-05-17T03:44:13.631Z,102017.69
2023-05-17T03:46:41.591Z,102014.81
2023-05-17T03:49:09.728Z,102021.94
2023-05-17T03:51:38.086Z,102020.31
2023-05-17T03:54:06.417Z,102025.75
2023-05-17T03:56:35.759Z,102031.22
2023-05-17T03:59:03.918Z,102036.53
2023-05-17T04:01:31.863Z,102041.59
2023-05-17T04:04:01.462Z,102043.44
2023-05-17T04:06:29.768Z,102047.00
2023-05-17T04:08:59.577Z,102047.47
2023-05-17T04:11:28.095Z,102053.59
2023-05-17T04:13:58.017Z,102061.84
2023-05-17T04:16:25.920Z,102053.13
2023-05-17T04:18:54.765Z,102055.53
2023-05-17T04:21:22.893Z,102066.03
2023-05-17T04:23:51.589Z,102068.47
2023-05-17T04:26:20.577Z,102070.47
2023-05-17T04:28:48.646Z,102062.97
2023-05-17T04:31:19.489Z,102069.66
2023-05-17T04:33:47.677Z,102063.56
2023-05-17T04:36:15.912Z,102068.56
2023-05-17T04:38:43.900Z,102068.19
2023-05-17T04:41:12.242Z,102073.16
2023-05-17T04:43:40.505Z,102071.69
2023-05-17T04:46:08.851Z,102071.03
2023-05-17T04:51:07.481Z,102079.03
2023-05-17T04:53:35.758Z,102084.88
2023-05-17T04:56:04.309Z,102089.94
2023-05-17T04:58:33.071Z,102106.56
2023-05-17T05:01:01.122Z,102102.03
2023-05-17T05:03:29.218Z,102105.47
2023-05-17T05:06:00.869Z,102111.66
2023-05-17T05:08:30.064Z,102115.75
2023-05-17T05:10:58.467Z,102121.91
2023-05-17T05:13:26.353Z,102130.59
2023-05-17T05:15:54.607Z,102130.34
2023-05-17T05:18:22.703Z,102131.69
2023-05-17T05:20:50.852Z,102134.31
2023-05-17T05:23:20.238Z,102133.97
2023-05-17T05:25:48.378Z,102139.81
2023-05-17T05:28:16.319Z,102137.91
2023-05-17T05:30:44.380Z,102139.72
2023-05-17T05:33:12.537Z,102141.19
2023-05-17T05:35:41.073Z,102143.59
2023-05-17T05:38:11.750Z,102147.66
2023-05-17T05:40:42.598Z,102156.34
2023-05-17T05:43:10.676Z,102144.59
2023-05-17T05:45:41.234Z,102152.41
2023-05-17T05:48:09.650Z,102149.03
2023-05-17T05:50:37.757Z,102150.97
2023-05-17T05:53:17.126Z,102148.34
2023-05-17T05:55:49.570Z,102169.44
2023-05-17T05:58:17.646Z,102165.72
2023-05-17T06:00:52.053Z,102164.84
2023-05-17T06:03:20.227Z,102173.25
2023-05-17T06:05:48.512Z,102171.38
2023-05-17T06:08:17.178Z,102173.66
2023-05-17T06:10:45.345Z,102181.19
2023-05-17T06:13:14.788Z,102179.47
2023-05-17T06:15:43.333Z,102197.63
2023-05-17T06:18:11.867Z,102193.84
2023-05-17T06:20:40.248Z,102201.75
2023-05-17T06:23:08.175Z,102207.84
2023-05-17T06:25:37.602Z,102222.56
2023-05-17T06:28:06.917Z,102223.19
2023-05-17T06:30:40.640Z,102215.97
2023-05-17T06:33:09.100Z,102219.03
2023-05-17T06:35:54.902Z,102228.81
2023-05-17T06:38:24.144Z,102237.09
2023-05-17T06:40:57.776Z,102229.66
2023-05-17T06:43:26.354Z,102254.25
2023-05-17T06:45:55.881Z,102239.66
2023-05-17T06:48:24.272Z,102258.66
2023-05-17T06:50:52.615Z,102256.63
2023-05-17T06:53:20.754Z,102263.22
2023-05-17T06:55:48.950Z,102267.41
2023-05-17T06:58:17.130Z,102257.44
2023-05-17T07:00:46.092Z,102254.41
2023-05-17T07:03:16.919Z,102274.94
2023-05-17T07:05:45.414Z,102262.63
2023-05-17T07:08:15.375Z,102262.69
2023-05-17T07:10:45.671Z,102269.59
2023-05-17T07:13:15.210Z,102276.44
2023-05-17T07:15:43.555Z,102275.53
2023-05-17T07:18:12.244Z,102265.38
2023-05-17T07:20:43.468Z,102255.22
2023-05-17T07:23:11.566Z,102266.50
2023-05-17T07:25:43.514Z,102274.31
2023-05-17T07:28:11.805Z,102277.13
2023-05-17T07:30:40.140Z,102296.44
2023-05-17T07:33:08.504Z,102300.94
2023-05-17T07:35:36.711Z,102294.31
2023-05-17T07:38:06.529Z,102297.06
2023-05-17T07:40:34.587Z,102303.41
2023-05-17T07:43:02.538Z,102303.47
2023-05-17T07:45:30.711Z,102306.97
2023-05-17T07:47:58.953Z,102304.81
2023-05-17T07:50:28.105Z,102309.53
2023-05-17T07:52:56.546Z,102304.41
2023-05-17T07:55:26.049Z,102305.00
2023-05-17T07:57:54.134Z,102287.84
2023-05-17T08:00:23.089Z,102294.69
2023-05-17T08:02:51.234Z,102299.13
2023-05-17T08:05:21.366Z,102306.91
2023-05-17T08:07:49.551Z,102300.66
2023-05-17T08:10:17.762Z,102312.19
2023-05-17T08:12:47.395Z,102336.31
2023-05-17T08:15:15.463Z,102321.13
2023-05-17T08:17:43.710Z,102324.31
2023-05-17T08:20:12.391Z,102329.75
2023-05-17T08:22:40.700Z,102338.47
2023-05-17T08:25:09.426Z,102346.53
2023-05-17T08:27:37.390Z,102338.38
2023-05-17T08:30:11.888Z,102347.66
2023-05-17T08:32:45.155Z,102353.63
2023-05-17T08:35:13.734Z,102360.16
2023-05-17T08:37:42.991Z,102370.06
2023-05-17T08:40:11.828Z,102362.91
2023-05-17T08:42:40.091Z,102354.38
2023-05-17T08:45:12.251Z,102347.84
2023-05-17T08:47:42.406Z,102347.72
2023-05-17T08:50:13.002Z,102347.03
2023-05-17T08:52:42.102Z,102341.56
2023-05-17T08:55:11.225Z,102354.78
2023-05-17T08:57:40.505Z,102347.91
2023-05-17T09:00:14.749Z,102367.38
2023-05-17T09:02:44.265Z,102376.63
2023-05-17T09:05:13.872Z,102369.59
2023-05-17T09:07:42.982Z,102392.59
2023-05-17T09:10:13.975Z,102381.22
2023-05-17T09:12:42.509Z,102375.34
2023-05-17T09:15:17.080Z,102369.41
2023-05-17T09:17:51.737Z,102375.69
2023-05-17T09:20:25.480Z,102362.13
2023-05-17T09:22:53.655Z,102368.28
2023-05-17T09:25:22.330Z,102375.75
2023-05-17T09:27:53.542Z,102381.97
2023-05-17T09:30:29.631Z,102386.06
2023-05-17T09:32:58.898Z,102394.75
2023-05-17T09:35:30.888Z,102402.13
2023-05-17T09:38:07.677Z,102412.81
2023-05-17T09:40:39.910Z,102409.22
2023-05-17T09:43:08.349Z,102405.88
2023-05-17T09:45:38.265Z,102409.91
2023-05-17T09:48:14.230Z,102411.94
2023-05-17T09:50:47.373Z,102404.78
2023-05-17T09:53:34.143Z,102401.00
2023-05-17T09:56:03.602Z,102397.97
2023-05-17T09:58:33.820Z,102405.69
2023-05-17T10:01:05.191Z,102391.47
2023-05-17T10:03:35.941Z,102397.50
2023-05-17T10:06:08.775Z,102398.78
2023-05-17T10:08:39.141Z,102391.34
2023-05-17T10:11:10.315Z,102397.53
2023-05-17T10:13:51.456Z,102415.50
2023-05-17T10:16:22.427Z,102401.06
2023-05-17T10:18:51.713Z,102391.06
2023-05-17T10:21:21.073Z,102395.41
2023-05-17T10:23:50.677Z,102404.25
2023-05-17T10:26:19.363Z,102404.13
2023-05-17T10:28:52.138Z,102409.28
2023-05-17T10:31:22.496Z,102415.16
2023-05-17T10:33:51.948Z,102402.22
2023-05-17T10:36:22.010Z,102407.78
2023-05-17T10:38:50.341Z,102406.72
2023-05-17T10:41:19.733Z,102407.16
2023-05-17T10:43:49.104Z,102419.94
2023-05-17T10:46:21.800Z,102417.78
2023-05-17T10:48:52.690Z,102414.03
2023-05-17T10:51:25.415Z,102402.69
2023-05-17T10:54:05.951Z,102407.41
2023-05-17T10:56:34.763Z,102405.69
2023-05-17T10:59:23.966Z,102407.94
2023-05-17T11:01:54.449Z,102409.69
2023-05-17T11:04:26.896Z,102415.78
2023-05-17T11:06:57.440Z,102414.53
2023-05-17T11:09:25.516Z,102417.41
2023-05-17T11:12:07.269Z,102418.69
2023-05-17T11:14:48.145Z,102439.06
2023-05-17T11:17:17.908Z,102429.88
2023-05-17T11:20:03.896Z,102439.06
2023-05-17T11:22:38.564Z,102428.09
2023-05-17T11:25:11.770Z,102427.72
2023-05-17T11:27:45.535Z,102434.06
2023-05-17T11:30:22.902Z,102426.25
2023-05-17T11:32:52.834Z,102429.28
2023-05-17T11:35:27.792Z,102433.34
2023-05-17T11:38:14.064Z,102416.28
2023-05-17T11:40:42.691Z,102421.31
2023-05-17T11:43:15.131Z,102414.25
2023-05-17T11:45:52.908Z,102421.97
2023-05-17T11:48:23.183Z,102428.81
2023-05-17T11:50:53.929Z,102434.41
2023-05-17T11:53:22.439Z,102444.78
2023-05-17T11:55:51.849Z,102443.22
2023-05-17T11:58:22.244Z,102441.88
2023-05-17T12:00:54.442Z,102441.25
2023-05-17T12:03:25.000Z,102440.16
2023-05-17T12:06:04.151Z,102426.34
2023-05-17T12:08:34.377Z,102439.00
2023-05-17T12:11:03.260Z,102429.44
2023-05-17T12:13:35.848Z,102426.41
2023-05-17T12:16:08.677Z,102416.03
2023-05-17T12:18:38.251Z,102404.69
2023-05-17T12:21:09.104Z,102429.28
2023-05-17T12:23:38.211Z,102431.69
2023-05-17T12:26:10.292Z,102431.84
2023-05-17T12:28:40.145Z,102429.72
2023-05-17T12:31:11.049Z,102441.81
2023-05-17T12:33:41.479Z,102444.09
2023-05-17T12:36:12.764Z,102424.94
2023-05-17T12:38:43.150Z,102431.88
2023-05-17T12:41:13.990Z,102435.50
2023-05-17T12:43:44.821Z,102433.47
2023-05-17T12:46:14.524Z,102440.84
2023-05-17T12:48:43.553Z,102449.06
2023-05-17T12:51:14.978Z,102448.16
2023-05-17T12:53:44.686Z,102450.78
2023-05-17T12:56:18.151Z,102451.09
2023-05-17T12:58:46.821Z,102438.66
2023-05-17T13:01:14.893Z,102439.25
2023-05-17T13:03:43.509Z,102440.06
2023-05-17T13:06:13.038Z,102453.41
2023-05-17T13:08:43.528Z,102440.03
2023-05-17T13:11:14.766Z,102452.47
2023-05-17T13:13:43.786Z,102451.22
2023-05-17T13:16:12.032Z,102454.47
2023-05-17T13:18:50.730Z,102447.50
2023-05-17T13:21:21.293Z,102453.78
2023-05-17T13:23:50.974Z,102457.41
2023-05-17T13:26:19.817Z,102462.34
2023-05-17T13:28:47.779Z,102458.03
2023-05-17T13:31:16.081Z,102473.16
2023-05-17T13:33:45.423Z,102468.47
2023-05-17T13:36:13.710Z,102472.06
2023-05-17T13:38:43.529Z,102463.94
2023-05-17T13:41:11.908Z,102459.34
2023-05-17T13:43:40.106Z,102465.75
2023-05-17T13:46:08.371Z,102464.97
2023-05-17T13:48:36.571Z,102459.72
2023-05-17T13:51:04.769Z,102458.13
2023-05-17T13:53:32.988Z,102458.50
2023-05-17T13:56:02.508Z,102459.13
2023-05-17T13:58:30.582Z,102461.41
2023-05-17T14:00:58.658Z,102470.69
2023-05-17T14:03:26.914Z,102474.13
2023-05-17T14:05:55.197Z,102466.88
2023-05-17T14:08:23.695Z,102476.63
2023-05-17T14:10:51.854Z,102473.88
2023-05-17T14:13:21.387Z,102478.75
2023-05-17T14:15:49.400Z,102486.31
2023-05-17T14:18:17.446Z,102469.47
2023-05-17T14:20:45.835Z,102479.09
2023-05-17T14:23:13.943Z,102480.28
2023-05-17T14:25:43.783Z,102478.63
2023-05-17T14:28:13.661Z,102478.66
2023-05-17T14:30:43.426Z,102484.47
2023-05-17T14:33:11.688Z,102483.63
2023-05-17T14:35:39.794Z,102498.28
2023-05-17T14:38:07.816Z,102496.75
2023-05-17T14:40:35.892Z,102492.44
2023-05-17T14:43:04.174Z,102507.50
2023-05-17T14:45:32.358Z,102506.75
2023-05-17T14:48:01.929Z,102504.78
2023-05-17T14:50:33.089Z,102511.28
2023-05-17T14:53:01.153Z,102500.03
2023-05-17T14:55:30.238Z,102501.47
2023-05-17T14:57:59.345Z,102494.63
2023-05-17T15:00:27.341Z,102502.63
2023-05-17T15:02:55.377Z,102526.66
2023-05-17T15:05:31.574Z,102522.47
2023-05-17T15:07:59.745Z,102515.75
2023-05-17T15:10:27.913Z,102516.84
2023-05-17T15:12:55.996Z,102518.84
2023-05-17T15:15:24.238Z,102520.09
2023-05-17T15:17:52.998Z,102514.72
2023-05-17T15:20:21.407Z,102511.41
2023-05-17T15:22:50.961Z,102510.22
2023-05-17T15:25:19.163Z,102520.34
2023-05-17T15:27:47.391Z,102513.31
2023-05-17T15:30:16.219Z,102509.56
2023-05-17T15:32:44.177Z,102523.69
2023-05-17T15:35:12.439Z,102508.50
2023-05-17T15:37:40.658Z,102507.91
2023-05-17T15:40:11.960Z,102513.06
2023-05-17T15:42:40.081Z,102513.63
2023-05-17T15:45:09.426Z,102514.63
2023-05-17T15:47:42.985Z,102513.31
2023-05-17T15:50:12.485Z,102512.38
2023-05-17T15:52:40.940Z,102508.97
2023-05-17T15:55:11.872Z,102510.41
2023-05-17T15:57:40.136Z,102522.56
2023-05-17T16:00:09.511Z,102524.53
2023-05-17T16:02:37.729Z,102522.91
2023-05-17T16:05:06.364Z,102526.78
2023-05-17T16:07:34.475Z,102530.34
2023-05-17T16:10:02.571Z,102525.25
2023-05-17T16:12:32.063Z,102530.78
2023-05-17T16:15:00.185Z,102531.31
2023-05-17T16:17:28.780Z,102532.41
2023-05-17T16:19:56.825Z,102535.03
2023-05-17T16:22:24.878Z,102538.69
2023-05-17T16:24:53.724Z,102538.06
2023-05-17T16:27:22.034Z,102540.81
2023-05-17T16:29:51.464Z,102545.00
2023-05-17T16:32:19.497Z,102547.09
2023-05-17T16:34:47.469Z,102547.81
2023-05-17T16:37:16.161Z,102556.06
2023-05-17T16:39:44.155Z,102549.97
2023-05-17T16:42:12.106Z,102555.09
2023-05-17T16:44:40.210Z,102556.38
2023-05-17T16:47:09.592Z,102563.91
2023-05-17T16:49:38.769Z,102557.31
2023-05-17T16:52:07.616Z,102565.66
2023-05-17T16:54:36.752Z,102558.69
2023-05-17T16:57:08.037Z,102566.78
2023-05-17T16:59:36.699Z,102555.91
2023-05-17T17:02:04.997Z,102564.34
2023-05-17T17:04:34.394Z,102568.63
2023-05-17T17:07:02.869Z,102569.34
2023-05-17T17:09:31.748Z,102571.88
2023-05-17T17:12:02.830Z,102577.25
2023-05-17T17:14:34.968Z,102578.56
2023-05-17T17:17:03.149Z,102580.00
2023-05-17T17:19:35.775Z,102572.88
2023-05-17T17:22:05.624Z,102579.03
2023-05-17T17:24:34.692Z,102574.09
2023-05-17T17:27:02.663Z,102569.25
2023-05-17T17:29:34.144Z,102581.75
2023-05-17T17:32:02.459Z,102584.66
2023-05-17T17:34:33.783Z,102579.41
2023-05-17T17:37:03.325Z,102580.50
2023-05-17T17:39:31.993Z,102584.91
2023-05-17T17:41:59.950Z,102582.06
2023-05-17T17:44:27.958Z,102590.53
2023-05-17T17:46:56.069Z,102591.59
2023-05-17T17:49:24.047Z,102604.00
2023-05-17T17:51:52.091Z,102600.66
2023-05-17T17:54:21.560Z,102601.19
2023-05-17T17:56:49.733Z,102605.31
2023-05-17T17:59:17.783Z,102614.78
2023-05-17T18:01:45.875Z,102615.72
2023-05-17T18:04:16.172Z,102617.72
2023-05-17T18:06:45.888Z,102617.94
2023-05-17T18:09:13.947Z,102614.13
2023-05-17T18:11:43.380Z,102622.44
2023-05-17T18:14:12.361Z,102624.03
2023-05-17T18:16:40.369Z,102617.47
2023-05-17T18:19:08.618Z,102620.56
2023-05-17T18:21:39.330Z,102626.94
2023-05-17T18:24:08.101Z,102637.00
2023-05-17T18:26:38.337Z,102639.97
2023-05-17T18:29:07.765Z,102636.09
2023-05-17T18:31:39.049Z,102640.97
2023-05-17T18:34:07.460Z,102644.09
2023-05-17T18:36:38.361Z,102640.16
2023-05-17T18:39:06.293Z,102647.38
2023-05-17T18:41:34.939Z,102646.25
2023-05-17T18:44:02.924Z,102645.50
2023-05-17T18:46:32.385Z,102642.66
2023-05-17T18:49:00.441Z,102639.16
2023-05-17T18:51:28.962Z,102648.03
2023-05-17T18:53:56.948Z,102648.38
2023-05-17T18:56:25.418Z,102652.97
2023-05-17T18:58:54.000Z,102641.56
2023-05-17T19:01:22.331Z,102649.13
2023-05-17T19:03:55.206Z,102650.88
2023-05-17T19:06:26.376Z,102654.78
2023-05-17T19:08:54.901Z,102664.81
2023-05-17T19:11:23.374Z,102657.19
2023-05-17T19:13:51.467Z,102652.13
2023-05-17T19:16:19.550Z,102651.19
2023-05-17T19:18:47.517Z,102663.09
2023-05-17T19:21:19.558Z,102666.66
2023-05-17T19:23:47.465Z,102660.56
2023-05-17T19:26:15.387Z,102659.59
2023-05-17T19:28:43.437Z,102662.47
2023-05-17T19:31:14.305Z,102658.19
2023-05-17T19:33:42.552Z,102666.13
2023-05-17T19:36:11.025Z,102663.59
2023-05-17T19:38:40.380Z,102667.03
2023-05-17T19:41:09.434Z,102668.53
2023-05-17T19:43:38.362Z,102673.75
2023-05-17T19:46:10.500Z,102665.44
2023-05-17T19:48:39.548Z,102668.47
2023-05-17T19:51:07.616Z,102680.22
2023-05-17T19:53:48.294Z,102667.53
2023-05-17T19:56:23.973Z,102669.72
2023-05-17T19:58:52.510Z,102668.63
2023-05-17T20:01:21.471Z,102670.09
2023-05-17T20:03:51.949Z,102674.50
2023-05-17T20:06:20.125Z,102678.63
2023-05-17T20:08:48.190Z,102671.09
2023-05-17T20:11:16.680Z,102682.66
2023-05-17T20:13:46.193Z,102676.50
2023-05-17T20:16:14.213Z,102673.47
2023-05-17T20:18:44.473Z,102674.50
2023-05-17T20:21:24.473Z,102676.44
2023-05-17T20:23:56.689Z,102675.75
2023-05-17T20:26:27.329Z,102668.59
2023-05-17T20:28:56.995Z,102674.16
2023-05-17T20:31:24.985Z,102677.00
2023-05-17T20:33:53.036Z,102670.63
2023-05-17T20:36:21.222Z,102678.69
2023-05-17T20:38:49.238Z,102682.25
2023-05-17T20:41:17.282Z,102690.78
2023-05-17T20:43:47.488Z,102684.97
2023-05-17T20:46:17.743Z,102681.97
2023-05-17T20:48:48.065Z,102680.34
2023-05-17T20:51:17.751Z,102679.94
2023-05-17T20:53:46.416Z,102679.81
2023-05-17T20:56:16.298Z,102684.38
2023-05-17T20:58:44.297Z,102682.38
2023-05-17T21:01:12.422Z,102689.53
2023-05-17T21:03:43.441Z,102683.16
2023-05-17T21:06:11.755Z,102691.38
2023-05-17T21:08:40.134Z,102691.78
2023-05-17T21:11:08.234Z,102692.78
2023-05-17T21:13:36.943Z,102691.09
2023-05-17T21:16:05.345Z,102687.44
2023-05-17T21:18:42.085Z,102687.88
2023-05-17T21:21:10.185Z,102687.88
2023-05-17T21:23:38.216Z,102686.06
2023-05-17T21:26:07.728Z,102686.53
2023-05-17T21:28:36.524Z,102685.31
2023-05-17T21:31:05.251Z,102685.19
2023-05-17T21:33:38.206Z,102673.09
2023-05-17T21:36:07.852Z,102684.88
2023-05-17T21:38:36.704Z,102672.44
2023-05-17T21:41:05.197Z,102684.28
2023-05-17T21:43:33.146Z,102682.53
2023-05-17T21:46:01.310Z,102678.22
2023-05-17T21:48:30.031Z,102682.00
2023-05-17T21:50:58.075Z,102676.78
2023-05-17T21:53:27.838Z,102682.91
2023-05-17T21:56:01.892Z,102690.19
2023-05-17T21:58:31.869Z,102695.81
2023-05-17T22:01:03.011Z,102691.38
2023-05-17T22:03:31.626Z,102695.00
2023-05-17T22:05:59.848Z,102697.88
2023-05-17T22:08:29.417Z,102692.41
2023-05-17T22:10:57.636Z,102699.19
2023-05-17T22:13:26.838Z,102692.06
2023-05-17T22:15:57.685Z,102701.28
2023-05-17T22:18:26.942Z,102705.91
2023-05-17T22:20:59.606Z,102705.00
2023-05-17T22:23:29.362Z,102701.19
2023-05-17T22:26:00.478Z,102703.63
2023-05-17T22:28:29.788Z,102705.72
2023-05-17T22:30:58.229Z,102708.19
2023-05-17T22:33:29.868Z,102712.66
2023-05-17T22:35:58.856Z,102712.72
2023-05-17T22:38:27.093Z,102711.09
2023-05-17T22:40:57.002Z,102713.84
2023-05-17T22:43:28.177Z,102713.66
2023-05-17T22:46:00.330Z,102706.94
2023-05-17T22:48:30.593Z,102714.06
2023-05-17T22:50:59.036Z,102719.41
2023-05-17T22:53:27.294Z,102720.31
2023-05-17T22:56:00.485Z,102722.13
2023-05-17T22:58:28.726Z,102723.78
2023-05-17T23:01:00.795Z,102719.53
2023-05-17T23:03:29.055Z,102723.91
2023-05-17T23:06:03.150Z,102719.34
2023-05-17T23:08:31.332Z,102727.13
2023-05-17T23:11:01.821Z,102727.59
2023-05-17T23:13:29.807Z,102724.28
2023-05-17T23:15:57.940Z,102718.59
2023-05-17T23:18:27.588Z,102718.25
2023-05-17T23:20:55.677Z,102723.50
2023-05-17T23:23:24.200Z,102723.69
2023-05-17T23:25:52.449Z,102718.56
2023-05-17T23:28:23.910Z,102715.84
2023-05-17T23:30:53.719Z,102728.88
2023-05-17T23:33:21.805Z,102728.94
2023-05-17T23:35:51.219Z,102734.34
2023-05-17T23:38:19.387Z,102727.41
2023-05-17T23:40:47.473Z,102727.03
2023-05-17T23:43:15.564Z,102734.19
2023-05-17T23:45:45.077Z,102727.13
2023-05-17T23:48:16.157Z,102729.78
2023-05-17T23:50:44.807Z,102737.09
2023-05-17T23:53:15.816Z,102737.34
2023-05-17T23:55:43.867Z,102730.31
2023-05-17T23:58:14.627Z,102732.16
